Time;durP1;ratioP1;P1;durP2;ratioP2;P2;SDS_P1;SDS_P2;PMS_P1;PMS_P2;Temp;Humidity;BMP_temperature;BMP_pressure;BME280_temperature;BME280_humidity;BME280_pressure;Samples;Min_cycle;Max_cycle;Signal;HPM_P1;HPM_P2
2021/10/10 17:24:08;;;;;;;8.27;5.82;;;;;;;24.03;38.59;102304.56;5067105;28;20398;-60
2021/10/10 17:26:38;;;;;;;9.00;6.05;;;;;;;23.96;37.72;102285.19;5068774;28;20394;-58
2021/10/10 17:29:03;;;;;;;8.00;6.40;;;;;;;24.21;38.02;102319.22;5057949;28;20029;-52
2021/10/10 17:31:30;;;;;;;8.27;6.35;;;;;;;24.24;37.54;102321.19;5048441;28;20460;-58
2021/10/10 17:33:56;;;;;;;8.30;6.60;;;;;;;24.27;37.21;102316.88;5048005;28;20494;-54
2021/10/10 17:36:21;;;;;;;8.88;6.60;;;;;;;24.30;36.95;102314.09;5047466;28;20108;-56
2021/10/10 17:38:47;;;;;;;9.30;6.38;;;;;;;24.36;37.83;102311.78;5048898;28;20067;-57
2021/10/10 17:41:12;;;;;;;10.13;7.47;;;;;;;24.33;36.68;102312.53;5048701;28;20406;-54
2021/10/10 17:43:37;;;;;;;9.95;7.25;;;;;;;24.29;36.75;102303.44;5046175;28;20485;-56
2021/10/10 17:46:04;;;;;;;10.10;7.88;;;;;;;24.25;36.48;102305.38;5046393;28;20273;-51
2021/10/10 17:48:29;;;;;;;10.65;6.65;;;;;;;24.18;36.47;102297.88;5046149;28;20052;-58
2021/10/10 17:50:55;;;;;;;10.32;7.03;;;;;;;24.14;36.59;102303.38;5060727;28;20402;-53
2021/10/10 17:53:25;;;;;;;9.25;7.03;;;;;;;24.03;36.53;102297.06;5050172;28;20043;-58
2021/10/10 17:55:51;;;;;;;10.10;7.32;;;;;;;24.04;36.56;102292.31;5052885;28;20441;-57
2021/10/10 17:58:19;;;;;;;9.77;7.20;;;;;;;24.01;36.80;102296.66;5067322;28;20451;-55
2021/10/10 18:11:23;;;;;;;12.82;7.28;;;;;;;23.81;37.09;102290.69;5048004;28;20534;-55
2021/10/10 18:13:49;;;;;;;8.68;6.68;;;;;;;23.79;36.99;102283.97;5047634;28;20490;-55
2021/10/10 18:16:16;;;;;;;8.98;7.57;;;;;;;23.68;37.14;102270.09;5047925;28;20047;-54
2021/10/10 18:18:42;;;;;;;9.07;7.07;;;;;;;23.78;37.25;102280.38;5047901;28;20037;-51
2021/10/10 18:21:07;;;;;;;9.73;7.20;;;;;;;23.78;37.18;102274.88;5047335;28;20041;-53
2021/10/10 18:23:32;;;;;;;8.40;6.90;;;;;;;23.78;37.05;102274.88;5047748;28;20061;-48
2021/10/10 18:25:58;;;;;;;8.75;7.28;;;;;;;23.77;37.21;102276.03;5048033;28;20029;-48
2021/10/10 18:28:23;;;;;;;10.02;7.13;;;;;;;23.77;37.30;102273.28;5047802;28;20041;-53
2021/10/10 18:30:49;;;;;;;9.10;6.95;;;;;;;23.80;37.21;102274.50;5048157;28;20049;-55
2021/10/10 18:33:14;;;;;;;9.02;6.80;;;;;;;23.81;37.54;102270.56;5046764;28;20029;-54
2021/10/10 18:35:40;;;;;;;9.85;6.43;;;;;;;23.80;37.04;102264.22;5034372;28;20052;-48
2021/10/10 18:38:05;;;;;;;9.13;6.82;;;;;;;23.68;38.58;102247.19;5034034;28;20053;-55
2021/10/10 18:40:31;;;;;;;8.52;6.78;;;;;;;23.67;38.46;102242.84;5034215;28;20095;-54
2021/10/10 18:42:56;;;;;;;8.10;6.68;;;;;;;23.78;38.81;102255.50;5031939;28;20045;-51
2021/10/10 18:45:22;;;;;;;10.10;5.85;;;;;;;23.81;38.63;102262.25;5044092;28;20052;-51
2021/10/10 18:47:47;;;;;;;9.25;6.70;;;;;;;23.85;38.84;102254.75;5034600;28;20042;-51
2021/10/10 18:50:13;;;;;;;7.80;5.90;;;;;;;23.88;38.79;102248.47;5047691;28;20041;-48
2021/10/10 18:52:38;;;;;;;8.13;6.35;;;;;;;23.97;39.09;102250.81;5054053;28;20033;-52
2021/10/10 18:55:04;;;;;;;8.63;6.32;;;;;;;24.02;38.98;102244.91;5054272;28;20040;-51
2021/10/10 18:57:29;;;;;;;10.57;6.50;;;;;;;24.05;39.17;102239.38;5053684;28;20045;-52
2021/10/10 18:59:55;;;;;;;7.70;5.70;;;;;;;24.11;39.05;102246.13;5052962;28;20045;-51
2021/10/10 19:02:20;;;;;;;7.07;6.03;;;;;;;24.16;38.85;102239.38;5053080;28;20098;-53
2021/10/10 19:04:45;;;;;;;7.35;5.80;;;;;;;24.20;39.03;102240.19;5053661;28;20063;-48
2021/10/10 19:07:11;;;;;;;9.32;6.18;;;;;;;24.23;38.93;102234.66;5047954;28;20041;-51
2021/10/10 19:09:36;;;;;;;9.40;6.47;;;;;;;24.26;39.04;102230.34;5033699;28;20167;-52
2021/10/10 19:12:02;;;;;;;7.47;5.78;;;;;;;24.30;38.89;102236.66;5033966;28;20466;-49
2021/10/10 19:14:27;;;;;;;8.15;5.90;;;;;;;24.32;39.02;102231.53;5033384;28;20051;-55
2021/10/10 19:16:53;;;;;;;8.30;6.35;;;;;;;24.36;39.03;102229.56;5026366;28;20037;-54
2021/10/10 19:19:18;;;;;;;8.85;6.38;;;;;;;24.40;39.18;102230.34;5023805;28;20048;-59
2021/10/10 19:21:44;;;;;;;8.98;6.32;;;;;;;24.44;39.40;102227.56;5033441;28;20391;-55
2021/10/10 19:24:12;;;;;;;8.65;5.95;;;;;;;24.49;39.35;102227.97;5015387;28;20458;-52
2021/10/10 19:26:37;;;;;;;9.45;6.03;;;;;;;24.55;39.48;102222.06;5031385;28;20049;-52
2021/10/10 19:29:03;;;;;;;8.50;6.03;;;;;;;24.58;39.47;102221.25;5034296;28;20461;-56
2021/10/10 19:31:28;;;;;;;7.28;5.70;;;;;;;24.44;39.58;102188.84;5035632;28;20045;-53
2021/10/10 19:33:54;;;;;;;7.88;6.32;;;;;;;24.63;39.01;102202.25;5034129;28;20040;-58
2021/10/10 19:36:19;;;;;;;8.00;5.57;;;;;;;24.70;39.37;102209.75;5045750;28;20037;-53
2021/10/10 19:38:44;;;;;;;8.00;5.82;;;;;;;24.56;39.10;102180.16;5050629;28;20053;-58
2021/10/10 19:41:10;;;;;;;8.35;5.57;;;;;;;24.74;38.81;102199.47;5056416;28;20029;-53
2021/10/10 19:43:35;;;;;;;7.80;5.60;;;;;;;24.75;38.13;102207.38;5051760;28;20041;-53
2021/10/10 19:46:01;;;;;;;6.63;5.85;;;;;;;24.78;38.26;102200.25;5047760;28;20044;-43
2021/10/10 19:48:26;;;;;;;6.95;5.78;;;;;;;24.81;37.79;102202.22;5042428;28;20068;-42
2021/10/10 19:50:51;;;;;;;7.85;6.32;;;;;;;24.83;37.53;102199.84;5040148;28;20068;-58
2021/10/10 19:53:17;;;;;;;7.68;5.47;;;;;;;24.74;37.38;102180.91;5032974;28;20049;-57
2021/10/10 19:55:42;;;;;;;7.10;5.38;;;;;;;24.84;37.50;102190.34;5032097;28;20060;-51
2021/10/10 19:58:08;;;;;;;8.43;6.35;;;;;;;24.90;37.41;102187.94;5032212;28;20124;-57
2021/10/10 20:00:33;;;;;;;6.30;5.70;;;;;;;24.92;37.62;102186.38;5031233;28;20518;-51
2021/10/10 20:02:59;;;;;;;6.68;5.28;;;;;;;24.96;37.26;102195.44;5031966;28;20045;-50
2021/10/10 20:05:24;;;;;;;10.75;5.57;;;;;;;24.95;37.07;102191.09;5032132;28;20041;-45
2021/10/10 20:07:50;;;;;;;7.07;5.28;;;;;;;24.93;37.66;102190.72;5032334;28;20045;-47
2021/10/10 20:10:15;;;;;;;7.05;5.68;;;;;;;24.89;38.07;102189.94;5032142;28;20468;-57
2021/10/10 20:12:41;;;;;;;7.63;5.45;;;;;;;24.75;37.89;102162.31;5032587;28;20083;-51
2021/10/10 20:15:06;;;;;;;6.43;5.20;;;;;;;24.94;37.93;102186.75;5032115;28;20048;-46
2021/10/10 20:17:32;;;;;;;6.43;5.10;;;;;;;24.94;37.65;102181.22;5031553;28;20052;-50
2021/10/10 20:19:57;;;;;;;7.07;5.30;;;;;;;25.03;37.95;102180.84;5032059;28;20171;-56
2021/10/10 20:22:28;;;;;;;6.85;4.80;;;;;;;25.06;37.82;102186.34;5031631;28;20430;-48
2021/10/10 20:24:54;;;;;;;7.45;5.25;;;;;;;25.11;38.00;102184.34;5031292;28;20054;-49
2021/10/10 20:27:20;;;;;;;5.82;4.90;;;;;;;25.12;37.83;102189.50;5032079;28;20084;-48
2021/10/10 20:29:46;;;;;;;6.85;5.43;;;;;;;25.09;38.23;102179.19;5031963;28;20041;-46
2021/10/10 20:32:11;;;;;;;5.50;4.63;;;;;;;25.09;38.36;102172.88;5032117;28;20037;-51
2021/10/10 20:34:37;;;;;;;5.85;4.30;;;;;;;25.13;38.10;102173.66;5031671;28;20045;-46
2021/10/10 20:37:02;;;;;;;6.53;4.97;;;;;;;25.14;37.92;102166.94;5031538;28;20041;-48
2021/10/10 20:39:28;;;;;;;6.68;4.60;;;;;;;25.15;38.10;102172.06;5032168;28;20375;-50
2021/10/10 20:41:53;;;;;;;5.18;4.32;;;;;;;25.18;38.06;102167.69;5031549;28;20107;-45
2021/10/10 20:44:18;;;;;;;6.28;4.80;;;;;;;25.20;37.92;102170.84;5029994;28;20037;-55
2021/10/10 20:46:44;;;;;;;5.65;4.57;;;;;;;25.14;37.76;102156.66;5031612;28;20053;-58
2021/10/10 20:49:10;;;;;;;5.97;4.78;;;;;;;25.20;37.88;102157.78;5031638;28;20438;-50
2021/10/10 20:51:36;;;;;;;5.35;4.20;;;;;;;25.25;38.22;102159.34;5030854;28;20509;-49
2021/10/10 20:54:01;;;;;;;5.80;4.47;;;;;;;25.27;38.01;102156.97;5031527;28;20163;-53
2021/10/10 20:56:27;;;;;;;5.40;4.53;;;;;;;25.27;38.14;102162.50;5031065;28;20060;-48
2021/10/10 20:58:52;;;;;;;5.63;4.70;;;;;;;25.30;38.03;102156.16;5030694;28;20037;-56
2021/10/10 21:01:17;;;;;;;5.45;4.25;;;;;;;25.21;38.30;102140.00;5030637;28;20045;-48
2021/10/10 21:03:45;;;;;;;4.97;4.35;;;;;;;25.34;38.66;102154.94;5030565;28;20048;-57
2021/10/10 21:06:11;;;;;;;5.47;4.40;;;;;;;25.33;37.89;102150.59;5029041;28;20080;-48
2021/10/10 21:08:36;;;;;;;5.57;4.30;;;;;;;25.38;38.12;102154.91;5031094;28;20091;-53
2021/10/10 21:11:03;;;;;;;6.63;4.50;;;;;;;25.12;37.79;102111.16;5031151;28;20041;-53
2021/10/10 21:13:28;;;;;;;5.80;4.60;;;;;;;25.40;37.73;102154.53;5019604;28;20449;-55
2021/10/10 21:15:54;;;;;;;4.90;3.97;;;;;;;25.42;38.27;102157.69;5020031;28;20029;-57
2021/10/10 21:18:19;;;;;;;6.30;4.10;;;;;;;25.22;38.06;102115.84;5030091;28;20116;-49
2021/10/10 21:20:45;;;;;;;5.63;3.97;;;;;;;25.46;37.94;102147.34;5030630;28;20465;-49
2021/10/10 21:23:10;;;;;;;5.10;4.30;;;;;;;25.47;37.73;102140.63;5031025;28;20053;-57
2021/10/10 21:25:36;;;;;;;4.82;3.80;;;;;;;25.32;37.83;102118.56;5029835;28;20052;-46
2021/10/10 21:28:06;;;;;;;4.57;3.67;;;;;;;25.32;37.66;102121.31;5029821;28;20044;-47
2021/10/10 21:35:56;;;;;;;4.82;3.80;;;;;;;25.47;38.10;102138.63;5030529;28;20088;-55
2021/10/10 21:38:21;;;;;;;5.30;3.92;;;;;;;25.42;38.21;102135.53;5029094;28;20057;-51
2021/10/10 21:40:46;;;;;;;4.85;4.03;;;;;;;25.38;38.11;102149.38;5027219;28;20041;-55
2021/10/10 21:43:12;;;;;;;5.15;4.07;;;;;;;25.35;38.51;102147.44;5030055;28;20041;-54
2021/10/10 21:45:37;;;;;;;4.88;3.85;;;;;;;25.17;38.38;102125.38;5029644;28;20091;-55
2021/10/10 21:48:05;;;;;;;5.45;3.97;;;;;;;25.30;38.78;102142.31;5029374;28;20496;-53
2021/10/10 21:50:30;;;;;;;3.97;3.20;;;;;;;25.28;38.45;102141.91;5030711;28;20512;-56
2021/10/10 21:52:55;;;;;;;4.15;3.60;;;;;;;25.23;38.82;102139.59;5029328;28;20049;-53
2021/10/10 21:55:21;;;;;;;5.15;3.42;;;;;;;25.21;38.08;102134.47;5029707;28;20029;-51
2021/10/10 21:57:47;;;;;;;4.68;3.55;;;;;;;24.61;38.49;102043.34;5029757;28;20052;-57
2021/10/10 22:00:13;;;;;;;4.97;3.88;;;;;;;25.26;38.67;102141.53;5031004;28;20049;-56
2021/10/10 22:02:39;;;;;;;4.97;3.85;;;;;;;25.32;38.57;102146.25;5029404;28;20033;-52
2021/10/10 22:05:05;;;;;;;5.80;4.20;;;;;;;25.22;38.67;102121.41;5029852;28;20038;-54
2021/10/10 22:07:30;;;;;;;4.32;3.60;;;;;;;25.23;38.63;102122.97;5030693;28;20045;-52
2021/10/10 22:09:56;;;;;;;4.95;3.78;;;;;;;25.33;38.60;102138.75;5032250;28;20069;-53
2021/10/10 22:12:21;;;;;;;5.95;3.70;;;;;;;25.17;38.63;102119.81;5032912;28;20068;-54
2021/10/10 22:14:46;;;;;;;4.68;3.60;;;;;;;25.31;37.62;102141.13;5035448;28;20049;-48
2021/10/10 22:17:12;;;;;;;6.68;3.63;;;;;;;25.20;37.00;102135.63;5032944;28;20095;-46
2021/10/10 22:19:37;;;;;;;5.93;4.10;;;;;;;25.15;35.76;102136.06;5048101;28;20037;-48
2021/10/10 22:22:05;;;;;;;5.00;3.55;;;;;;;24.91;35.65;102110.03;5052846;28;20509;-47
2021/10/10 22:24:39;;;;;;;7.30;4.25;;;;;;;24.98;35.03;102131.38;5047077;28;20037;-46
2021/10/10 22:27:20;;;;;;;6.05;4.43;;;;;;;24.93;35.20;102131.78;5033555;28;20044;-51
2021/10/10 22:32:30;;;;;;;6.57;3.65;;;;;;;24.93;34.63;102126.25;5033759;28;20040;-51
2021/10/10 22:34:55;;;;;;;6.03;4.35;;;;;;;24.76;34.38;102101.00;5032861;28;20041;-53
2021/10/10 22:37:21;;;;;;;4.43;3.50;;;;;;;24.92;34.32;102117.16;5033696;28;20614;-51
2021/10/10 22:39:46;;;;;;;5.38;3.85;;;;;;;24.93;34.07;102126.25;5046318;28;20510;-58
2021/10/10 22:42:12;;;;;;;5.85;3.63;;;;;;;24.93;34.11;102126.25;5014449;28;20099;-53
2021/10/10 22:44:39;;;;;;;6.65;3.80;;;;;;;24.92;33.88;102125.47;5020665;28;20060;-51
2021/10/10 22:47:06;;;;;;;6.00;4.05;;;;;;;24.92;34.11;102119.13;5032775;28;20048;-61
2021/10/10 22:49:31;;;;;;;5.22;3.63;;;;;;;24.76;33.49;102095.47;5033566;28;20045;-54
2021/10/10 22:51:57;;;;;;;4.82;3.58;;;;;;;24.88;33.92;102113.59;4999705;28;20513;-57
2021/10/10 22:54:22;;;;;;;5.53;3.55;;;;;;;24.86;33.17;102110.47;5033287;28;20045;-54
2021/10/10 22:56:48;;;;;;;6.38;3.97;;;;;;;24.88;33.06;102116.38;5033245;28;20520;-51
2021/10/10 22:59:13;;;;;;;4.57;3.53;;;;;;;24.82;33.05;102109.66;5033968;28;20048;-52
2021/10/10 23:01:38;;;;;;;6.07;3.97;;;;;;;24.87;33.23;102116.78;5033149;28;20033;-48
2021/10/10 23:04:04;;;;;;;6.22;4.03;;;;;;;24.80;33.34;102109.28;5032764;28;20461;-47
2021/10/10 23:06:29;;;;;;;6.32;4.03;;;;;;;24.79;33.35;102113.25;5026702;28;20064;-49
2021/10/10 23:08:55;;;;;;;7.57;4.32;;;;;;;24.68;34.04;102082.84;5026143;28;20041;-51
2021/10/10 23:11:21;;;;;;;5.93;3.63;;;;;;;24.86;34.54;102107.69;5033370;28;20077;-49
2021/10/10 23:13:46;;;;;;;5.35;3.65;;;;;;;24.92;34.60;102111.63;5033052;28;20053;-49
2021/10/10 23:16:12;;;;;;;5.63;3.60;;;;;;;24.96;34.98;102104.09;5033259;28;20033;-49
2021/10/10 23:18:37;;;;;;;5.90;3.70;;;;;;;25.00;34.89;102110.38;5033049;28;20451;-46
2021/10/10 23:21:02;;;;;;;5.28;3.97;;;;;;;25.04;35.30;102104.88;5032999;28;20053;-48
2021/10/10 23:23:28;;;;;;;6.05;3.88;;;;;;;24.98;34.95;102087.84;5032235;28;20084;-47
2021/10/10 23:25:53;;;;;;;6.05;3.58;;;;;;;24.97;35.20;102066.09;5033202;28;20033;-50
2021/10/10 23:28:19;;;;;;;5.10;3.92;;;;;;;25.13;35.74;102091.38;5031598;28;20071;-47
2021/10/10 23:30:45;;;;;;;4.60;3.38;;;;;;;25.16;35.63;102090.56;5032935;28;20052;-52
2021/10/10 23:33:10;;;;;;;5.00;3.55;;;;;;;25.19;35.94;102095.28;5033243;28;20108;-60
2021/10/10 23:35:35;;;;;;;5.47;3.78;;;;;;;25.20;36.32;102085.75;5031886;28;20504;-49
2021/10/10 23:38:01;;;;;;;6.07;3.88;;;;;;;25.19;36.14;102086.19;5033150;28;20502;-54
2021/10/10 23:40:26;;;;;;;4.75;3.10;;;;;;;25.14;36.51;102084.63;5032160;28;20053;-51
2021/10/10 23:42:51;;;;;;;4.40;3.65;;;;;;;25.08;36.43;102079.91;5032488;28;20049;-48
2021/10/10 23:45:17;;;;;;;4.78;3.45;;;;;;;25.04;36.98;102082.72;5032292;28;20045;-57
2021/10/10 23:47:43;;;;;;;5.03;3.47;;;;;;;24.88;37.20;102063.78;5031909;28;20045;-48
2021/10/10 23:50:09;;;;;;;5.07;3.67;;;;;;;24.97;37.48;102079.94;5031854;28;20060;-47
2021/10/10 23:52:34;;;;;;;4.20;3.35;;;;;;;24.99;37.82;102078.34;5032584;28;20049;-48
2021/10/10 23:54:59;;;;;;;4.15;3.30;;;;;;;25.07;37.86;102081.91;5032304;28;20478;-51
2021/10/10 23:57:25;;;;;;;4.07;3.25;;;;;;;25.11;37.91;102076.31;5031019;28;20477;-46
2021/10/10 23:59:50;;;;;;;5.13;3.30;;;;;;;24.93;38.09;102045.97;5032077;28;20083;-57
